Temp: 17.1°C   Baro: 1010.4mb
  Wind: 4.0mph   Dir: WNW (297°)
  Rain: 0.8mm (0.0mm/hr)
  Solar: 163W/m2  Hum: 91%
 
Bath Spa Weather Station Historical Data
Daily Summary for June 23, 2019 Units:  Both    English   Metric
Daily Weekly Monthly Yearly Custom
  High: Low: Average:
Temperature: 89.2 °F /  31.8 °C 58.1 °F /  14.5 °C 73.5 °F /  23.1 °C
Dew Point: 67.1 °F /  19.5 °C 55.8 °F /  13.2 °C 61.2 °F /  16.2 °C
Humidity: 94% 40.1% 69%
Wind Speed: 11.4mph /  18.3km/h - 3mph /  4.8km/h
Wind Gust: 20mph /  32.2km/h - -
Wind- - SSE
Pressure: 30.15 in /  1020.9 hPa 29.82 in /  1009.7 hPa -
Precipitation: 0.00 in /  0 mm    
Historical Graphs
 
 
Tabular Data for June 23, 2019
Time Temperature Dew Point Pressure Wind Wind Speed Wind Gust Humidity Rainfall Rate (Hourly) solar
00:04 64.6 °F /  18.1 °C 60.3 °F /  15.7 °C 30.15in /  1020.9hPa West 0.4mph /  0.6km/h 4mph /  6.4km/h 86% 0.00in /  0mm 0 W/m2
00:09 64.4 °F /  18 °C 60.1 °F /  15.6 °C 30.15in /  1020.9hPa Calm     86% 0.00in /  0mm 0 W/m2
00:14 64.2 °F /  17.9 °C 60.3 °F /  15.7 °C 30.15in /  1020.9hPa Calm     87% 0.00in /  0mm 0 W/m2
00:19 64.2 °F /  17.9 °C 60.3 °F /  15.7 °C 30.15in /  1020.9hPa Calm     87% 0.00in /  0mm 0 W/m2
00:24 64.1 °F /  17.8 °C 60.2 °F /  15.7 °C 30.14in /  1020.5hPa Calm     87% 0.00in /  0mm 0 W/m2
00:29 64 °F /  17.8 °C 60.1 °F /  15.6 °C 30.14in /  1020.5hPa Calm     87% 0.00in /  0mm 0 W/m2
00:34 64 °F /  17.8 °C 60.1 °F /  15.6 °C 30.14in /  1020.5hPa Calm     87% 0.00in /  0mm 0 W/m2
00:39 63.9 °F /  17.7 °C 60.1 °F /  15.6 °C 30.14in /  1020.5hPa Calm     87.1% 0.00in /  0mm 0 W/m2
00:44 63.8 °F /  17.7 °C 59.8 °F /  15.4 °C 30.14in /  1020.5hPa Calm     87% 0.00in /  0mm 0 W/m2
00:49 63.6 °F /  17.6 °C 59.9 °F /  15.5 °C 30.14in /  1020.5hPa Calm     87.8% 0.00in /  0mm 0 W/m2
00:54 63.5 °F /  17.5 °C 59.9 °F /  15.5 °C 30.14in /  1020.5hPa Calm     88% 0.00in /  0mm 0 W/m2
00:59 63.3 °F /  17.4 °C 59.7 °F /  15.4 °C 30.14in /  1020.5hPa Calm     88% 0.00in /  0mm 0 W/m2
01:04 63.2 °F /  17.3 °C 59.6 °F /  15.3 °C 30.14in /  1020.5hPa Calm     88% 0.00in /  0mm 0 W/m2
01:09 63 °F /  17.2 °C 59.4 °F /  15.2 °C 30.14in /  1020.5hPa Calm     88% 0.00in /  0mm 0 W/m2
01:14 62.9 °F /  17.2 °C 59.5 °F /  15.3 °C 30.14in /  1020.5hPa Calm     88.5% 0.00in /  0mm 0 W/m2
01:19 62.6 °F /  17 °C 59.4 °F /  15.2 °C 30.14in /  1020.5hPa Calm     89% 0.00in /  0mm 0 W/m2
01:24 62.4 °F /  16.9 °C 59.2 °F /  15.1 °C 30.14in /  1020.5hPa Calm     89% 0.00in /  0mm 0 W/m2
01:29 62.3 °F /  16.8 °C 59.1 °F /  15.1 °C 30.14in /  1020.5hPa Calm     89% 0.00in /  0mm 0 W/m2
01:34 62.1 °F /  16.7 °C 58.9 °F /  14.9 °C 30.14in /  1020.5hPa Calm     89% 0.00in /  0mm 0 W/m2
01:39 62.1 °F /  16.7 °C 58.8 °F /  14.9 °C 30.14in /  1020.5hPa Calm     89% 0.00in /  0mm 0 W/m2
01:44 62.1 °F /  16.7 °C 58.8 °F /  14.9 °C 30.14in /  1020.5hPa Calm     89% 0.00in /  0mm 0 W/m2
01:49 62.1 °F /  16.7 °C 59 °F /  15 °C 30.14in /  1020.5hPa Calm     89.7% 0.00in /  0mm 0 W/m2
01:54 62 °F /  16.7 °C 59.1 °F /  15.1 °C 30.14in /  1020.5hPa Calm     90% 0.00in /  0mm 0 W/m2
01:59 61.7 °F /  16.5 °C 58.6 °F /  14.8 °C 30.14in /  1020.5hPa Calm     89.2% 0.00in /  0mm 0 W/m2
02:04 61.5 °F /  16.4 °C 58.5 °F /  14.7 °C 30.14in /  1020.5hPa Calm     89.4% 0.00in /  0mm 0 W/m2
02:09 61.4 °F /  16.3 °C 58.6 °F /  14.8 °C 30.13in /  1020.2hPa Calm     90% 0.00in /  0mm 0 W/m2
02:14 61.3 °F /  16.3 °C 58.5 °F /  14.7 °C 30.13in /  1020.2hPa Calm     90% 0.00in /  0mm 0 W/m2
02:19 61.3 °F /  16.3 °C 58.4 °F /  14.7 °C 30.14in /  1020.5hPa Calm     90% 0.00in /  0mm 0 W/m2
02:24 61.1 °F /  16.2 °C 58.2 °F /  14.6 °C 30.14in /  1020.5hPa Calm     90% 0.00in /  0mm 0 W/m2
02:29 60.9 °F /  16.1 °C 58 °F /  14.4 °C 30.14in /  1020.5hPa Calm     90% 0.00in /  0mm 0 W/m2
02:34 60.8 °F /  16 °C 57.9 °F /  14.4 °C 30.14in /  1020.5hPa Calm     90% 0.00in /  0mm 0 W/m2
02:39 60.7 °F /  15.9 °C 57.8 °F /  14.3 °C 30.14in /  1020.5hPa Calm     90% 0.00in /  0mm 0 W/m2
02:44 60.6 °F /  15.9 °C 57.7 °F /  14.3 °C 30.14in /  1020.5hPa Calm     90% 0.00in /  0mm 0 W/m2
02:49 60.4 °F /  15.8 °C 57.6 °F /  14.2 °C 30.14in /  1020.5hPa Calm     90% 0.00in /  0mm 0 W/m2
02:54 60.4 °F /  15.8 °C 57.6 °F /  14.2 °C 30.13in /  1020.2hPa Calm     90.2% 0.00in /  0mm 0 W/m2
02:59 60.4 °F /  15.8 °C 57.6 °F /  14.2 °C 30.13in /  1020.2hPa Calm     90% 0.00in /  0mm 0 W/m2
03:04 60.4 °F /  15.8 °C 57.7 °F /  14.3 °C 30.13in /  1020.2hPa Calm     90.9% 0.00in /  0mm 0 W/m2
03:09 60.4 °F /  15.8 °C 57.7 °F /  14.3 °C 30.13in /  1020.2hPa Calm     91% 0.00in /  0mm 0 W/m2
03:14 60.4 °F /  15.8 °C 57.7 °F /  14.3 °C 30.13in /  1020.2hPa Calm     91% 0.00in /  0mm 0 W/m2
03:19 60.3 °F /  15.7 °C 57.6 °F /  14.2 °C 30.13in /  1020.2hPa Calm     91% 0.00in /  0mm 0 W/m2
03:24 60.1 °F /  15.6 °C 57.4 °F /  14.1 °C 30.13in /  1020.2hPa Calm     91% 0.00in /  0mm 0 W/m2
03:29 59.9 °F /  15.5 °C 57.2 °F /  14 °C 30.13in /  1020.2hPa Calm     91% 0.00in /  0mm 0 W/m2
03:34 59.9 °F /  15.5 °C 57.2 °F /  14 °C 30.13in /  1020.2hPa Calm     91% 0.00in /  0mm 0 W/m2
03:39 59.7 °F /  15.4 °C 57 °F /  13.9 °C 30.12in /  1019.9hPa Calm     91% 0.00in /  0mm 0 W/m2
03:44 59.6 °F /  15.3 °C 56.9 °F /  13.8 °C 30.13in /  1020.2hPa Calm     91% 0.00in /  0mm 0 W/m2
03:49 59.4 °F /  15.2 °C 56.7 °F /  13.7 °C 30.13in /  1020.2hPa Calm     91% 0.00in /  0mm 0 W/m2
03:54 59.4 °F /  15.2 °C 56.7 °F /  13.7 °C 30.13in /  1020.2hPa Calm     91% 0.00in /  0mm 0 W/m2
03:59 59.3 °F /  15.2 °C 56.6 °F /  13.7 °C 30.12in /  1019.9hPa Calm     91% 0.00in /  0mm 0 W/m2
04:04 59.3 °F /  15.2 °C 56.6 °F /  13.7 °C 30.12in /  1019.9hPa Calm     91% 0.00in /  0mm 0 W/m2
04:09 59.4 °F /  15.2 °C 56.9 °F /  13.8 °C 30.12in /  1019.9hPa Calm     91.6% 0.00in /  0mm 0 W/m2
04:14 59.3 °F /  15.2 °C 56.9 °F /  13.8 °C 30.12in /  1019.9hPa Calm     92% 0.00in /  0mm 0 W/m2
04:19 59.1 °F /  15.1 °C 56.5 °F /  13.6 °C 30.12in /  1019.9hPa Calm     91.2% 0.00in /  0mm 0 W/m2
04:24 59 °F /  15 °C 56.3 °F /  13.5 °C 30.11in /  1019.5hPa Calm     91% 0.00in /  0mm 0 W/m2
04:29 59 °F /  15 °C 56.5 °F /  13.6 °C 30.11in /  1019.5hPa Calm     91.6% 0.00in /  0mm 0 W/m2
04:34 59 °F /  15 °C 56.7 °F /  13.7 °C 30.11in /  1019.5hPa Calm     92% 0.00in /  0mm 0 W/m2
04:39 58.8 °F /  14.9 °C 56.5 °F /  13.6 °C 30.11in /  1019.5hPa Calm     92% 0.00in /  0mm 0 W/m2
04:44 58.6 °F /  14.8 °C 56.3 °F /  13.5 °C 30.11in /  1019.5hPa Calm     92% 0.00in /  0mm 0 W/m2
04:49 58.6 °F /  14.8 °C 56.3 °F /  13.5 °C 30.11in /  1019.5hPa Calm     92% 0.00in /  0mm 0 W/m2
04:54 58.6 °F /  14.8 °C 56.2 °F /  13.4 °C 30.11in /  1019.5hPa Calm     92% 0.00in /  0mm 0 W/m2
04:59 58.6 °F /  14.8 °C 56.2 °F /  13.4 °C 30.11in /  1019.5hPa Calm     92% 0.00in /  0mm 0 W/m2
05:04 58.5 °F /  14.7 °C 56.1 °F /  13.4 °C 30.11in /  1019.5hPa Calm     92% 0.00in /  0mm 0 W/m2
05:09 58.4 °F /  14.7 °C 56 °F /  13.3 °C 30.11in /  1019.5hPa Calm     92% 0.00in /  0mm 0 W/m2
05:14 58.1 °F /  14.5 °C 55.8 °F /  13.2 °C 30.11in /  1019.5hPa Calm     92% 0.00in /  0mm 0 W/m2
05:19 58.3 °F /  14.6 °C 55.9 °F /  13.3 °C 30.11in /  1019.5hPa Calm     92% 0.00in /  0mm 0 W/m2
05:24 58.4 °F /  14.7 °C 56 °F /  13.3 °C 30.10in /  1019.2hPa Calm     92% 0.00in /  0mm 0 W/m2
05:29 58.5 °F /  14.7 °C 56.1 °F /  13.4 °C 30.10in /  1019.2hPa Calm     92% 0.00in /  0mm 5 W/m2
05:34 58.5 °F /  14.7 °C 56.1 °F /  13.4 °C 30.10in /  1019.2hPa Calm     92% 0.00in /  0mm 7 W/m2
05:39 58.6 °F /  14.8 °C 56.4 °F /  13.6 °C 30.11in /  1019.5hPa West 0.4mph /  0.6km/h 1mph /  1.6km/h 92.4% 0.00in /  0mm 9 W/m2
05:44 58.7 °F /  14.8 °C 56.8 °F /  13.8 °C 30.10in /  1019.2hPa Calm   1mph /  1.6km/h 93% 0.00in /  0mm 11 W/m2
05:49 58.6 °F /  14.8 °C 56.7 °F /  13.7 °C 30.10in /  1019.2hPa Calm     93% 0.00in /  0mm 14 W/m2
05:54 58.4 °F /  14.7 °C 56.4 °F /  13.6 °C 30.10in /  1019.2hPa Calm     93% 0.00in /  0mm 18 W/m2
05:59 58.3 °F /  14.6 °C 56.3 °F /  13.5 °C 30.10in /  1019.2hPa Calm     93% 0.00in /  0mm 19 W/m2
06:04 58.4 °F /  14.7 °C 56.4 °F /  13.6 °C 30.10in /  1019.2hPa Calm     93% 0.00in /  0mm 30 W/m2
06:09 58.6 °F /  14.8 °C 56.6 °F /  13.7 °C 30.11in /  1019.5hPa Calm   1mph /  1.6km/h 93% 0.00in /  0mm 33 W/m2
06:14 58.8 °F /  14.9 °C 56.8 °F /  13.8 °C 30.11in /  1019.5hPa Calm   1mph /  1.6km/h 93% 0.00in /  0mm 35 W/m2
06:19 59 °F /  15 °C 57 °F /  13.9 °C 30.11in /  1019.5hPa West 0.1mph /  0.2km/h 1mph /  1.6km/h 93% 0.00in /  0mm 47 W/m2
06:24 59.1 °F /  15.1 °C 57.1 °F /  13.9 °C 30.11in /  1019.5hPa Calm     93% 0.00in /  0mm 56 W/m2
06:29 59.4 °F /  15.2 °C 57.4 °F /  14.1 °C 30.11in /  1019.5hPa West 0.4mph /  0.6km/h 2mph /  3.2km/h 93% 0.00in /  0mm 49 W/m2
06:34 59.5 °F /  15.3 °C 57.6 °F /  14.2 °C 30.11in /  1019.5hPa West 0.8mph /  1.3km/h 3mph /  4.8km/h 93% 0.00in /  0mm 65 W/m2
06:39 59.7 °F /  15.4 °C 57.9 °F /  14.4 °C 30.10in /  1019.2hPa West 0.1mph /  0.2km/h 2mph /  3.2km/h 93.9% 0.00in /  0mm 83 W/m2
06:44 59.8 °F /  15.4 °C 58 °F /  14.4 °C 30.10in /  1019.2hPa WNW 0.2mph /  0.3km/h 2mph /  3.2km/h 94% 0.00in /  0mm 83 W/m2
06:49 59.9 °F /  15.5 °C 58.1 °F /  14.5 °C 30.10in /  1019.2hPa WNW 0.4mph /  0.6km/h 2mph /  3.2km/h 94% 0.00in /  0mm 90 W/m2
06:54 59.9 °F /  15.5 °C 58.1 °F /  14.5 °C 30.10in /  1019.2hPa WNW 0.7mph /  1.1km/h 3mph /  4.8km/h 94% 0.00in /  0mm 109 W/m2
06:59 60 °F /  15.6 °C 58.2 °F /  14.6 °C 30.10in /  1019.2hPa WSW 1.3mph /  2.1km/h 4mph /  6.4km/h 94% 0.00in /  0mm 121 W/m2
07:04 60.3 °F /  15.7 °C 58.5 °F /  14.7 °C 30.10in /  1019.2hPa WSW 0.5mph /  0.8km/h 4mph /  6.4km/h 94% 0.00in /  0mm 132 W/m2
07:09 60.3 °F /  15.7 °C 58.5 °F /  14.7 °C 30.09in /  1018.8hPa SW 1.3mph /  2.1km/h 4mph /  6.4km/h 94% 0.00in /  0mm 146 W/m2
07:14 60.3 °F /  15.7 °C 58.5 °F /  14.7 °C 30.09in /  1018.8hPa SW 2.6mph /  4.2km/h 5mph /  8km/h 94% 0.00in /  0mm 153 W/m2
07:19 60.2 °F /  15.7 °C 58.4 °F /  14.7 °C 30.09in /  1018.8hPa SW 2.8mph /  4.5km/h 5mph /  8km/h 94% 0.00in /  0mm 176 W/m2
07:24 60.1 °F /  15.6 °C 58.3 °F /  14.6 °C 30.09in /  1018.8hPa SW 1.2mph /  1.9km/h 4mph /  6.4km/h 94% 0.00in /  0mm 181 W/m2
07:29 60.2 °F /  15.7 °C 58.4 °F /  14.7 °C 30.09in /  1018.8hPa SW 0.6mph /  1km/h 3mph /  4.8km/h 94% 0.00in /  0mm 192 W/m2
07:34 60.4 °F /  15.8 °C 58.6 °F /  14.8 °C 30.09in /  1018.8hPa SW 0.6mph /  1km/h 3mph /  4.8km/h 94% 0.00in /  0mm 179 W/m2
07:39 60.6 °F /  15.9 °C 58.8 °F /  14.9 °C 30.09in /  1018.8hPa SW 1.7mph /  2.7km/h 5mph /  8km/h 94% 0.00in /  0mm 192 W/m2
07:44 60.9 °F /  16.1 °C 59.1 °F /  15.1 °C 30.09in /  1018.8hPa SW 0.7mph /  1.1km/h 4mph /  6.4km/h 94% 0.00in /  0mm 204 W/m2
07:49 61.2 °F /  16.2 °C 59.4 °F /  15.2 °C 30.09in /  1018.8hPa SW 1.8mph /  2.9km/h 5mph /  8km/h 94% 0.00in /  0mm 218 W/m2
07:54 61.5 °F /  16.4 °C 59.7 °F /  15.4 °C 30.09in /  1018.8hPa SW 1.5mph /  2.4km/h 4mph /  6.4km/h 94% 0.00in /  0mm 234 W/m2
07:59 61.6 °F /  16.4 °C 59.8 °F /  15.4 °C 30.09in /  1018.8hPa SW 1.7mph /  2.7km/h 4mph /  6.4km/h 94% 0.00in /  0mm 243 W/m2
08:04 62 °F /  16.7 °C 60.2 °F /  15.7 °C 30.09in /  1018.8hPa SW 1.8mph /  2.9km/h 4mph /  6.4km/h 94% 0.00in /  0mm 260 W/m2
08:09 62.3 °F /  16.8 °C 60.5 °F /  15.8 °C 30.09in /  1018.8hPa SW 0.9mph /  1.4km/h 2mph /  3.2km/h 94% 0.00in /  0mm 276 W/m2
08:14 62.7 °F /  17.1 °C 60.9 °F /  16.1 °C 30.08in /  1018.5hPa SW 1.4mph /  2.3km/h 3mph /  4.8km/h 94% 0.00in /  0mm 285 W/m2
08:19 63 °F /  17.2 °C 61.1 °F /  16.2 °C 30.08in /  1018.5hPa SW 1.9mph /  3.1km/h 4mph /  6.4km/h 93.6% 0.00in /  0mm 306 W/m2
08:24 63.1 °F /  17.3 °C 61.1 °F /  16.2 °C 30.08in /  1018.5hPa SSW 3.1mph /  5km/h 6mph /  9.7km/h 93% 0.00in /  0mm 313 W/m2
08:29 63.4 °F /  17.4 °C 61.4 °F /  16.3 °C 30.08in /  1018.5hPa South 2.1mph /  3.4km/h 6mph /  9.7km/h 93% 0.00in /  0mm 315 W/m2
08:34 64 °F /  17.8 °C 62 °F /  16.7 °C 30.08in /  1018.5hPa South 1.7mph /  2.7km/h 5mph /  8km/h 92.9% 0.00in /  0mm 343 W/m2
08:39 64.8 °F /  18.2 °C 62.4 °F /  16.9 °C 30.07in /  1018.2hPa South 1.6mph /  2.6km/h 5mph /  8km/h 91.8% 0.00in /  0mm 360 W/m2
08:44 65.2 °F /  18.4 °C 62.3 °F /  16.8 °C 30.07in /  1018.2hPa South 2.2mph /  3.5km/h 5mph /  8km/h 90.5% 0.00in /  0mm 381 W/m2
08:49 65.6 °F /  18.7 °C 62.3 °F /  16.8 °C 30.07in /  1018.2hPa South 2.5mph /  4km/h 6mph /  9.7km/h 89.2% 0.00in /  0mm 392 W/m2
08:54 66 °F /  18.9 °C 62.4 °F /  16.9 °C 30.07in /  1018.2hPa SSE 1.5mph /  2.4km/h 5mph /  8km/h 88.3% 0.00in /  0mm 411 W/m2
08:59 66.5 °F /  19.2 °C 62.6 °F /  17 °C 30.07in /  1018.2hPa SE 2.9mph /  4.7km/h 8mph /  12.9km/h 87.3% 0.00in /  0mm 369 W/m2
09:04 66.7 °F /  19.3 °C 62.4 °F /  16.9 °C 30.07in /  1018.2hPa SE 2.8mph /  4.5km/h 6mph /  9.7km/h 86.1% 0.00in /  0mm 360 W/m2
09:09 66.9 °F /  19.4 °C 62.5 °F /  16.9 °C 30.07in /  1018.2hPa SE 2mph /  3.2km/h 6mph /  9.7km/h 85.8% 0.00in /  0mm 404 W/m2
09:14 67.6 °F /  19.8 °C 62.8 °F /  17.1 °C 30.07in /  1018.2hPa ESE 3mph /  4.8km/h 6mph /  9.7km/h 84.5% 0.00in /  0mm 396 W/m2
09:19 67.4 °F /  19.7 °C 62.1 °F /  16.7 °C 30.07in /  1018.2hPa SE 4.3mph /  6.9km/h 9mph /  14.5km/h 83.2% 0.00in /  0mm 462 W/m2
09:24 67.1 °F /  19.5 °C 62 °F /  16.7 °C 30.06in /  1017.8hPa SSE 4.4mph /  7.1km/h 7mph /  11.3km/h 83.8% 0.00in /  0mm 471 W/m2
09:29 67.4 °F /  19.7 °C 62.4 °F /  16.9 °C 30.06in /  1017.8hPa SE 3.6mph /  5.8km/h 7mph /  11.3km/h 84% 0.00in /  0mm 483 W/m2
09:34 68.6 °F /  20.3 °C 63.2 °F /  17.3 °C 30.06in /  1017.8hPa ESE 4mph /  6.4km/h 8mph /  12.9km/h 82.9% 0.00in /  0mm 490 W/m2
09:39 69.1 °F /  20.6 °C 63 °F /  17.2 °C 30.06in /  1017.8hPa SE 1.2mph /  1.9km/h 6mph /  9.7km/h 81.2% 0.00in /  0mm 504 W/m2
09:44 69.1 °F /  20.6 °C 62.8 °F /  17.1 °C 30.06in /  1017.8hPa SE 4.5mph /  7.2km/h 10mph /  16.1km/h 80.5% 0.00in /  0mm 513 W/m2
09:49 68.8 °F /  20.4 °C 62.7 °F /  17.1 °C 30.06in /  1017.8hPa SSE 4.5mph /  7.2km/h 9mph /  14.5km/h 81% 0.00in /  0mm 529 W/m2
09:54 69.2 °F /  20.7 °C 63 °F /  17.2 °C 30.06in /  1017.8hPa SSE 3.6mph /  5.8km/h 7mph /  11.3km/h 81% 0.00in /  0mm 540 W/m2
09:59 69.8 °F /  21 °C 63.5 °F /  17.5 °C 30.06in /  1017.8hPa SSE 2mph /  3.2km/h 7mph /  11.3km/h 80.4% 0.00in /  0mm 548 W/m2
10:04 70.9 °F /  21.6 °C 64.1 °F /  17.8 °C 30.05in /  1017.5hPa SSE 3.3mph /  5.3km/h 6mph /  9.7km/h 79% 0.00in /  0mm 564 W/m2
10:09 71.4 °F /  21.9 °C 63.7 °F /  17.6 °C 30.05in /  1017.5hPa SE 4mph /  6.4km/h 8mph /  12.9km/h 76.5% 0.00in /  0mm 573 W/m2
10:14 71.3 °F /  21.8 °C 63.7 °F /  17.6 °C 30.05in /  1017.5hPa SE 2.2mph /  3.5km/h 6mph /  9.7km/h 77% 0.00in /  0mm 585 W/m2
10:19 71.5 °F /  21.9 °C 63.7 °F /  17.6 °C 30.05in /  1017.5hPa SSE 2.4mph /  3.9km/h 7mph /  11.3km/h 76.3% 0.00in /  0mm 594 W/m2
10:24 72.7 °F /  22.6 °C 64.6 °F /  18.1 °C 30.05in /  1017.5hPa SE 2.4mph /  3.9km/h 6mph /  9.7km/h 75.9% 0.00in /  0mm 603 W/m2
10:29 73.6 °F /  23.1 °C 64.6 °F /  18.1 °C 30.05in /  1017.5hPa SE 4.3mph /  6.9km/h 9mph /  14.5km/h 73.6% 0.00in /  0mm 612 W/m2
10:34 73.4 °F /  23 °C 63.6 °F /  17.6 °C 30.05in /  1017.5hPa SE 5.3mph /  8.5km/h 11mph /  17.7km/h 71.2% 0.00in /  0mm 626 W/m2
10:39 73.8 °F /  23.2 °C 63.8 °F /  17.7 °C 30.05in /  1017.5hPa SE 3.2mph /  5.1km/h 9mph /  14.5km/h 71% 0.00in /  0mm 633 W/m2
10:44 74.4 °F /  23.6 °C 64 °F /  17.8 °C 30.05in /  1017.5hPa ESE 4.8mph /  7.7km/h 11mph /  17.7km/h 70.2% 0.00in /  0mm 642 W/m2
10:49 75.1 °F /  23.9 °C 64.2 °F /  17.9 °C 30.04in /  1017.2hPa ESE 4.6mph /  7.4km/h 11mph /  17.7km/h 68.9% 0.00in /  0mm 654 W/m2
10:54 75.6 °F /  24.2 °C 64.5 °F /  18.1 °C 30.04in /  1017.2hPa ESE 2.6mph /  4.2km/h 9mph /  14.5km/h 68.5% 0.00in /  0mm 661 W/m2
10:59 74.7 °F /  23.7 °C 63.6 °F /  17.6 °C 30.04in /  1017.2hPa SSE 3.5mph /  5.6km/h 8mph /  12.9km/h 68.3% 0.00in /  0mm 671 W/m2
11:04 75 °F /  23.9 °C 64.3 °F /  17.9 °C 30.04in /  1017.2hPa SSE 2.9mph /  4.7km/h 7mph /  11.3km/h 69.3% 0.00in /  0mm 684 W/m2
11:09 75.3 °F /  24.1 °C 63.6 °F /  17.6 °C 30.04in /  1017.2hPa SSE 3.6mph /  5.8km/h 9mph /  14.5km/h 67.1% 0.00in /  0mm 691 W/m2
11:14 75.3 °F /  24.1 °C 63.5 °F /  17.5 °C 30.04in /  1017.2hPa South 5.1mph /  8.2km/h 9mph /  14.5km/h 66.8% 0.00in /  0mm 698 W/m2
11:19 75.3 °F /  24.1 °C 63.5 °F /  17.5 °C 30.03in /  1016.8hPa South 2.8mph /  4.5km/h 9mph /  14.5km/h 66.8% 0.00in /  0mm 714 W/m2
11:24 76.6 °F /  24.8 °C 64 °F /  17.8 °C 30.03in /  1016.8hPa SE 6.2mph /  10km/h 11mph /  17.7km/h 65.2% 0.00in /  0mm 715 W/m2
11:29 76.6 °F /  24.8 °C 63.7 °F /  17.6 °C 30.03in /  1016.8hPa SE 6.5mph /  10.5km/h 12mph /  19.3km/h 64.5% 0.00in /  0mm 703 W/m2
11:34 77.4 °F /  25.2 °C 64.6 °F /  18.1 °C 30.03in /  1016.8hPa SSE 2.9mph /  4.7km/h 8mph /  12.9km/h 64.6% 0.00in /  0mm 707 W/m2
11:39 77.9 °F /  25.5 °C 65.9 °F /  18.8 °C 30.03in /  1016.8hPa SSE 6.9mph /  11.1km/h 15mph /  24.1km/h 66.8% 0.00in /  0mm 738 W/m2
11:44 77.1 °F /  25.1 °C 65.2 °F /  18.4 °C 30.03in /  1016.8hPa SSE 5.2mph /  8.4km/h 15mph /  24.1km/h 67% 0.00in /  0mm 745 W/m2
11:49 78 °F /  25.6 °C 66 °F /  18.9 °C 30.02in /  1016.5hPa SE 4.2mph /  6.8km/h 9mph /  14.5km/h 66.7% 0.00in /  0mm 747 W/m2
11:54 78.6 °F /  25.9 °C 66 °F /  18.9 °C 30.02in /  1016.5hPa SSE 5mph /  8km/h 10mph /  16.1km/h 65.3% 0.00in /  0mm 751 W/m2
11:59 79.2 °F /  26.2 °C 66.6 °F /  19.2 °C 30.02in /  1016.5hPa SE 4.5mph /  7.2km/h 10mph /  16.1km/h 65.3% 0.00in /  0mm 761 W/m2
12:04 80.1 °F /  26.7 °C 66.3 °F /  19.1 °C 30.01in /  1016.1hPa SE 6.6mph /  10.6km/h 14mph /  22.5km/h 62.8% 0.00in /  0mm 766 W/m2
12:09 79.5 °F /  26.4 °C 65.5 °F /  18.6 °C 30.01in /  1016.1hPa SSE 5mph /  8km/h 10mph /  16.1km/h 62.5% 0.00in /  0mm 768 W/m2
12:14 80.6 °F /  27 °C 66.5 °F /  19.2 °C 30.01in /  1016.1hPa SE 4.1mph /  6.6km/h 8mph /  12.9km/h 62.1% 0.00in /  0mm 768 W/m2
12:19 80.9 °F /  27.2 °C 66.4 °F /  19.1 °C 30.01in /  1016.1hPa SE 6.7mph /  10.8km/h 12mph /  19.3km/h 61.6% 0.00in /  0mm 775 W/m2
12:24 80.6 °F /  27 °C 65.7 °F /  18.7 °C 30.01in /  1016.1hPa SSE 6mph /  9.7km/h 12mph /  19.3km/h 60.5% 0.00in /  0mm 779 W/m2
12:29 80.5 °F /  26.9 °C 65.9 °F /  18.8 °C 30.01in /  1016.1hPa SSE 4.5mph /  7.2km/h 11mph /  17.7km/h 61.3% 0.00in /  0mm 780 W/m2
12:34 81 °F /  27.2 °C 66.2 °F /  19 °C 30.00in /  1015.8hPa SE 5.2mph /  8.4km/h 11mph /  17.7km/h 61% 0.00in /  0mm 784 W/m2
12:39 81.2 °F /  27.3 °C 65.9 °F /  18.8 °C 30.00in /  1015.8hPa SSE 8.5mph /  13.7km/h 13mph /  20.9km/h 59.8% 0.00in /  0mm 788 W/m2
12:44 81.2 °F /  27.3 °C 66 °F /  18.9 °C 30.00in /  1015.8hPa SE 4.2mph /  6.8km/h 13mph /  20.9km/h 60% 0.00in /  0mm 789 W/m2
12:49 82.6 °F /  28.1 °C 66.8 °F /  19.3 °C 30.00in /  1015.8hPa SSE 4.7mph /  7.6km/h 10mph /  16.1km/h 59.2% 0.00in /  0mm 791 W/m2
12:54 82.5 °F /  28.1 °C 66.6 °F /  19.2 °C 29.99in /  1015.5hPa SSE 4.9mph /  7.9km/h 10mph /  16.1km/h 58.8% 0.00in /  0mm 796 W/m2
12:59 83 °F /  28.3 °C 65.9 °F /  18.8 °C 29.99in /  1015.5hPa South 7.5mph /  12.1km/h 13mph /  20.9km/h 56.3% 0.00in /  0mm 793 W/m2
13:04 82.4 °F /  28 °C 66.3 °F /  19.1 °C 29.99in /  1015.5hPa SSE 4.6mph /  7.4km/h 13mph /  20.9km/h 58.3% 0.00in /  0mm 795 W/m2
13:09 84.7 °F /  29.3 °C 67.1 °F /  19.5 °C 29.99in /  1015.5hPa SSE 6.3mph /  10.1km/h 11mph /  17.7km/h 55.8% 0.00in /  0mm 795 W/m2
13:14 83.8 °F /  28.8 °C 65.5 °F /  18.6 °C 29.99in /  1015.5hPa SSE 7.6mph /  12.2km/h 13mph /  20.9km/h 54.3% 0.00in /  0mm 798 W/m2
13:19 83.8 °F /  28.8 °C 65.8 °F /  18.8 °C 29.99in /  1015.5hPa SE 6.2mph /  10km/h 13mph /  20.9km/h 54.9% 0.00in /  0mm 796 W/m2
13:24 84.6 °F /  29.2 °C 65.9 °F /  18.8 °C 29.98in /  1015.1hPa SSE 3.9mph /  6.3km/h 10mph /  16.1km/h 53.6% 0.00in /  0mm 798 W/m2
13:29 84.5 °F /  29.2 °C 65.6 °F /  18.7 °C 29.98in /  1015.1hPa SSE 5.1mph /  8.2km/h 10mph /  16.1km/h 53.3% 0.00in /  0mm 802 W/m2
13:34 84.7 °F /  29.3 °C 65.6 °F /  18.7 °C 29.98in /  1015.1hPa SSE 5.1mph /  8.2km/h 10mph /  16.1km/h 53.1% 0.00in /  0mm 803 W/m2
13:39 84.8 °F /  29.3 °C 64.6 °F /  18.1 °C 29.98in /  1015.1hPa SSE 8.1mph /  13km/h 14mph /  22.5km/h 51% 0.00in /  0mm 810 W/m2
13:44 84.9 °F /  29.4 °C 64.6 °F /  18.1 °C 29.98in /  1015.1hPa SSE 6.7mph /  10.8km/h 16mph /  25.7km/h 50.6% 0.00in /  0mm 886 W/m2
13:49 85.3 °F /  29.6 °C 64.6 °F /  18.1 °C 29.97in /  1014.8hPa SSE 6.8mph /  10.9km/h 16mph /  25.7km/h 49.9% 0.00in /  0mm 886 W/m2
13:54 85.3 °F /  29.6 °C 64 °F /  17.8 °C 29.97in /  1014.8hPa SSE 7mph /  11.3km/h 13mph /  20.9km/h 49% 0.00in /  0mm 515 W/m2
13:59 85.4 °F /  29.7 °C 64.6 °F /  18.1 °C 29.97in /  1014.8hPa SE 7.6mph /  12.2km/h 16mph /  25.7km/h 49.7% 0.00in /  0mm 1021 W/m2
14:04 85.8 °F /  29.9 °C 63.9 °F /  17.7 °C 29.97in /  1014.8hPa SSE 7.7mph /  12.4km/h 16mph /  25.7km/h 48.1% 0.00in /  0mm 1021 W/m2
14:09 85.7 °F /  29.8 °C 64.1 °F /  17.8 °C 29.97in /  1014.8hPa SSE 6.1mph /  9.8km/h 14mph /  22.5km/h 48.5% 0.00in /  0mm 983 W/m2
14:14 85.1 °F /  29.5 °C 63.8 °F /  17.7 °C 29.96in /  1014.4hPa SSE 6.4mph /  10.3km/h 12mph /  19.3km/h 48.9% 0.00in /  0mm 696 W/m2
14:19 85.3 °F /  29.6 °C 64.1 °F /  17.8 °C 29.96in /  1014.4hPa SSE 7.5mph /  12.1km/h 18mph /  29km/h 49.2% 0.00in /  0mm 410 W/m2
14:24 86.2 °F /  30.1 °C 63.4 °F /  17.4 °C 29.96in /  1014.4hPa SSE 7.8mph /  12.6km/h 18mph /  29km/h 46.7% 0.00in /  0mm 874 W/m2
14:29 86.6 °F /  30.3 °C 62.4 °F /  16.9 °C 29.96in /  1014.4hPa SSE 9.5mph /  15.3km/h 17mph /  27.4km/h 44.5% 0.00in /  0mm 898 W/m2
14:34 86.6 °F /  30.3 °C 63 °F /  17.2 °C 29.96in /  1014.4hPa SSE 7.8mph /  12.6km/h 17mph /  27.4km/h 45.5% 0.00in /  0mm 830 W/m2
14:39 87.3 °F /  30.7 °C 62.7 °F /  17.1 °C 29.95in /  1014.1hPa SSE 7.9mph /  12.7km/h 17mph /  27.4km/h 44% 0.00in /  0mm 780 W/m2
14:44 87.8 °F /  31 °C 61.9 °F /  16.6 °C 29.95in /  1014.1hPa SSE 9.7mph /  15.6km/h 17mph /  27.4km/h 42.1% 0.00in /  0mm 758 W/m2
14:49 87 °F /  30.6 °C 61.6 °F /  16.4 °C 29.95in /  1014.1hPa South 8.7mph /  14km/h 15mph /  24.1km/h 42.7% 0.00in /  0mm 747 W/m2
14:54 87.3 °F /  30.7 °C 62.1 °F /  16.7 °C 29.94in /  1013.8hPa South 8.4mph /  13.5km/h 16mph /  25.7km/h 43% 0.00in /  0mm 740 W/m2
14:59 87.6 °F /  30.9 °C 62.5 °F /  16.9 °C 29.94in /  1013.8hPa SSE 6.6mph /  10.6km/h 14mph /  22.5km/h 43.3% 0.00in /  0mm 731 W/m2
15:04 87.8 °F /  31 °C 62.1 °F /  16.7 °C 29.94in /  1013.8hPa SSE 8.7mph /  14km/h 17mph /  27.4km/h 42.3% 0.00in /  0mm 728 W/m2
15:09 87.4 °F /  30.8 °C 61.9 °F /  16.6 °C 29.94in /  1013.8hPa SSE 11.4mph /  18.3km/h 19mph /  30.6km/h 42.6% 0.00in /  0mm 724 W/m2
15:14 87.4 °F /  30.8 °C 61.9 °F /  16.6 °C 29.94in /  1013.8hPa SSE 10.1mph /  16.3km/h 20mph /  32.2km/h 42.5% 0.00in /  0mm 721 W/m2
15:19 87.8 °F /  31 °C 62 °F /  16.7 °C 29.93in /  1013.4hPa SSE 7.9mph /  12.7km/h 17mph /  27.4km/h 42.2% 0.00in /  0mm 714 W/m2
15:24 88 °F /  31.1 °C 62.4 °F /  16.9 °C 29.93in /  1013.4hPa South 7.9mph /  12.7km/h 15mph /  24.1km/h 42.6% 0.00in /  0mm 714 W/m2
15:29 87.7 °F /  30.9 °C 62.3 °F /  16.8 °C 29.93in /  1013.4hPa SSE 7.8mph /  12.6km/h 13mph /  20.9km/h 42.7% 0.00in /  0mm 708 W/m2
15:34 87.9 °F /  31.1 °C 62.1 °F /  16.7 °C 29.93in /  1013.4hPa SSE 8.8mph /  14.2km/h 16mph /  25.7km/h 42.1% 0.00in /  0mm 698 W/m2
15:39 87.7 °F /  30.9 °C 62.3 °F /  16.8 °C 29.93in /  1013.4hPa SSE 8.5mph /  13.7km/h 16mph /  25.7km/h 42.6% 0.00in /  0mm 705 W/m2
15:44 88.3 °F /  31.3 °C 62.3 °F /  16.8 °C 29.93in /  1013.4hPa SSE 6.7mph /  10.8km/h 14mph /  22.5km/h 41.8% 0.00in /  0mm 701 W/m2
15:49 88.9 °F /  31.6 °C 62.2 °F /  16.8 °C 29.93in /  1013.4hPa SSE 6.4mph /  10.3km/h 12mph /  19.3km/h 41.1% 0.00in /  0mm 712 W/m2
15:54 88.5 °F /  31.4 °C 61.6 °F /  16.4 °C 29.93in /  1013.4hPa South 10.3mph /  16.6km/h 16mph /  25.7km/h 40.6% 0.00in /  0mm 721 W/m2
15:59 88.4 °F /  31.3 °C 61.8 °F /  16.6 °C 29.92in /  1013.1hPa South 7.8mph /  12.6km/h 14mph /  22.5km/h 41% 0.00in /  0mm 742 W/m2
16:04 88.9 °F /  31.6 °C 61.7 °F /  16.5 °C 29.92in /  1013.1hPa South 10.9mph /  17.5km/h 19mph /  30.6km/h 40.3% 0.00in /  0mm 795 W/m2
16:09 89.2 °F /  31.8 °C 62.2 °F /  16.8 °C 29.92in /  1013.1hPa SSE 7.2mph /  11.6km/h 19mph /  30.6km/h 40.7% 0.00in /  0mm 733 W/m2
16:14 88.8 °F /  31.6 °C 61.5 °F /  16.4 °C 29.92in /  1013.1hPa SSE 8.9mph /  14.3km/h 16mph /  25.7km/h 40.2% 0.00in /  0mm 680 W/m2
16:19 88.7 °F /  31.5 °C 61.8 °F /  16.6 °C 29.92in /  1013.1hPa South 8.7mph /  14km/h 17mph /  27.4km/h 40.6% 0.00in /  0mm 638 W/m2
16:24 88.5 °F /  31.4 °C 61.3 °F /  16.3 °C 29.92in /  1013.1hPa South 10.7mph /  17.2km/h 17mph /  27.4km/h 40.1% 0.00in /  0mm 610 W/m2
16:29 88.3 °F /  31.3 °C 61.4 °F /  16.3 °C 29.92in /  1013.1hPa SSE 10.6mph /  17.1km/h 20mph /  32.2km/h 40.6% 0.00in /  0mm 592 W/m2
16:34 88.3 °F /  31.3 °C 61.6 °F /  16.4 °C 29.92in /  1013.1hPa SSE 9.8mph /  15.8km/h 17mph /  27.4km/h 41% 0.00in /  0mm 592 W/m2
16:39 88 °F /  31.1 °C 61.4 °F /  16.3 °C 29.92in /  1013.1hPa SSE 11.1mph /  17.9km/h 17mph /  27.4km/h 41% 0.00in /  0mm 589 W/m2
16:44 88 °F /  31.1 °C 61.5 °F /  16.4 °C 29.92in /  1013.1hPa SSE 7.8mph /  12.6km/h 15mph /  24.1km/h 41.2% 0.00in /  0mm 570 W/m2
16:49 88.1 °F /  31.2 °C 61.6 °F /  16.4 °C 29.92in /  1013.1hPa South 9.9mph /  15.9km/h 17mph /  27.4km/h 41.3% 0.00in /  0mm 568 W/m2
16:54 87.9 °F /  31.1 °C 61.2 °F /  16.2 °C 29.91in /  1012.8hPa SSE 8.7mph /  14km/h 17mph /  27.4km/h 41% 0.00in /  0mm 575 W/m2
16:59 88.2 °F /  31.2 °C 62.1 °F /  16.7 °C 29.91in /  1012.8hPa SSE 6.4mph /  10.3km/h 14mph /  22.5km/h 41.8% 0.00in /  0mm 577 W/m2
17:04 88.3 °F /  31.3 °C 62.4 °F /  16.9 °C 29.91in /  1012.8hPa South 5.9mph /  9.5km/h 12mph /  19.3km/h 42% 0.00in /  0mm 519 W/m2
17:09 88.5 °F /  31.4 °C 62.3 °F /  16.8 °C 29.91in /  1012.8hPa SSE 5.8mph /  9.3km/h 13mph /  20.9km/h 41.6% 0.00in /  0mm 496 W/m2
17:14 88.2 °F /  31.2 °C 62.2 °F /  16.8 °C 29.91in /  1012.8hPa SSE 5.9mph /  9.5km/h 18mph /  29km/h 42% 0.00in /  0mm 251 W/m2
17:19 87.9 °F /  31.1 °C 62 °F /  16.7 °C 29.91in /  1012.8hPa South 6.5mph /  10.5km/h 18mph /  29km/h 42% 0.00in /  0mm 278 W/m2
17:24 87.3 °F /  30.7 °C 61.9 °F /  16.6 °C 29.91in /  1012.8hPa SSE 7.4mph /  11.9km/h 13mph /  20.9km/h 42.6% 0.00in /  0mm 176 W/m2
17:29 87 °F /  30.6 °C 61.8 °F /  16.6 °C 29.91in /  1012.8hPa SSE 5.8mph /  9.3km/h 12mph /  19.3km/h 43% 0.00in /  0mm 153 W/m2
17:34 86.8 °F /  30.4 °C 62.2 °F /  16.8 °C 29.91in /  1012.8hPa SSE 4.5mph /  7.2km/h 12mph /  19.3km/h 43.9% 0.00in /  0mm 109 W/m2
17:39 86.7 °F /  30.4 °C 62.6 °F /  17 °C 29.90in /  1012.4hPa SE 3.3mph /  5.3km/h 8mph /  12.9km/h 44.7% 0.00in /  0mm 79 W/m2
17:44 86.6 °F /  30.3 °C 62.7 °F /  17.1 °C 29.90in /  1012.4hPa SE 3.6mph /  5.8km/h 10mph /  16.1km/h 45% 0.00in /  0mm 104 W/m2
17:49 86.4 °F /  30.2 °C 62.5 °F /  16.9 °C 29.90in /  1012.4hPa SSE 4.5mph /  7.2km/h 9mph /  14.5km/h 45% 0.00in /  0mm 141 W/m2
17:54 86.4 °F /  30.2 °C 62.4 °F /  16.9 °C 29.90in /  1012.4hPa SSE 5.1mph /  8.2km/h 10mph /  16.1km/h 45% 0.00in /  0mm 183 W/m2
17:59 86.3 °F /  30.2 °C 62.4 °F /  16.9 °C 29.89in /  1012.1hPa SSE 4.1mph /  6.6km/h 9mph /  14.5km/h 45% 0.00in /  0mm 183 W/m2
18:04 86 °F /  30 °C 62.2 °F /  16.8 °C 29.89in /  1012.1hPa SSE 7.7mph /  12.4km/h 14mph /  22.5km/h 45% 0.00in /  0mm 178 W/m2
18:09 85.6 °F /  29.8 °C 61.9 °F /  16.6 °C 29.89in /  1012.1hPa SSE 7mph /  11.3km/h 14mph /  22.5km/h 45% 0.00in /  0mm 146 W/m2
18:14 85.5 °F /  29.7 °C 61.7 °F /  16.5 °C 29.89in /  1012.1hPa SSE 6.1mph /  9.8km/h 10mph /  16.1km/h 45% 0.00in /  0mm 123 W/m2
18:19 85.3 °F /  29.6 °C 61.5 °F /  16.4 °C 29.89in /  1012.1hPa SSE 6.8mph /  10.9km/h 14mph /  22.5km/h 45% 0.00in /  0mm 104 W/m2
18:24 85.1 °F /  29.5 °C 61.3 °F /  16.3 °C 29.89in /  1012.1hPa SSE 4.7mph /  7.6km/h 10mph /  16.1km/h 45% 0.00in /  0mm 105 W/m2
18:29 85.1 °F /  29.5 °C 61.3 °F /  16.3 °C 29.89in /  1012.1hPa SSE 5.9mph /  9.5km/h 12mph /  19.3km/h 45% 0.00in /  0mm 105 W/m2
18:34 85 °F /  29.4 °C 61.3 °F /  16.3 °C 29.89in /  1012.1hPa SSE 6mph /  9.7km/h 11mph /  17.7km/h 45.1% 0.00in /  0mm 91 W/m2
18:39 84.9 °F /  29.4 °C 61.9 °F /  16.6 °C 29.89in /  1012.1hPa SSE 5mph /  8km/h 10mph /  16.1km/h 46% 0.00in /  0mm 97 W/m2
18:44 84.8 °F /  29.3 °C 61.8 °F /  16.6 °C 29.89in /  1012.1hPa SSE 5.7mph /  9.2km/h 10mph /  16.1km/h 46% 0.00in /  0mm 97 W/m2
18:49 84.7 °F /  29.3 °C 61.7 °F /  16.5 °C 29.89in /  1012.1hPa SSE 4.9mph /  7.9km/h 10mph /  16.1km/h 46% 0.00in /  0mm 70 W/m2
18:54 84.6 °F /  29.2 °C 61.6 °F /  16.4 °C 29.89in /  1012.1hPa SSE 4.5mph /  7.2km/h 10mph /  16.1km/h 46.2% 0.00in /  0mm 37 W/m2
18:59 84.3 °F /  29.1 °C 61.8 °F /  16.6 °C 29.89in /  1012.1hPa SSE 5.1mph /  8.2km/h 10mph /  16.1km/h 47% 0.00in /  0mm 19 W/m2
19:04 84.2 °F /  29 °C 61.7 °F /  16.5 °C 29.88in /  1011.7hPa SE 3.5mph /  5.6km/h 9mph /  14.5km/h 47% 0.00in /  0mm 40 W/m2
19:09 83.9 °F /  28.8 °C 62.7 °F /  17.1 °C 29.88in /  1011.7hPa SSE 2.3mph /  3.7km/h 8mph /  12.9km/h 49% 0.00in /  0mm 69 W/m2
19:14 83.6 °F /  28.7 °C 62.3 °F /  16.8 °C 29.88in /  1011.7hPa SSE 5.4mph /  8.7km/h 11mph /  17.7km/h 49% 0.00in /  0mm 81 W/m2
19:19 83.3 °F /  28.5 °C 61.5 °F /  16.4 °C 29.88in /  1011.7hPa SSE 4.5mph /  7.2km/h 11mph /  17.7km/h 48% 0.00in /  0mm 79 W/m2
19:24 83.1 °F /  28.4 °C 61.3 °F /  16.3 °C 29.88in /  1011.7hPa SSE 4.6mph /  7.4km/h 9mph /  14.5km/h 48% 0.00in /  0mm 69 W/m2
19:29 83.1 °F /  28.4 °C 61.3 °F /  16.3 °C 29.88in /  1011.7hPa SSE 4.9mph /  7.9km/h 9mph /  14.5km/h 48% 0.00in /  0mm 130 W/m2
19:34 82.9 °F /  28.3 °C 61.2 °F /  16.2 °C 29.88in /  1011.7hPa SSE 2.6mph /  4.2km/h 9mph /  14.5km/h 48% 0.00in /  0mm 84 W/m2
19:39 82.9 °F /  28.3 °C 61.8 °F /  16.6 °C 29.88in /  1011.7hPa SE 1.9mph /  3.1km/h 5mph /  8km/h 48.8% 0.00in /  0mm 81 W/m2
19:44 82.9 °F /  28.3 °C 61.9 °F /  16.6 °C 29.88in /  1011.7hPa SSE 2.3mph /  3.7km/h 7mph /  11.3km/h 49% 0.00in /  0mm 79 W/m2
19:49 82.8 °F /  28.2 °C 61.9 °F /  16.6 °C 29.88in /  1011.7hPa SSW 1mph /  1.6km/h 7mph /  11.3km/h 49.3% 0.00in /  0mm 60 W/m2
19:54 82.8 °F /  28.2 °C 62.2 °F /  16.8 °C 29.87in /  1011.4hPa SSW 1.6mph /  2.6km/h 6mph /  9.7km/h 50% 0.00in /  0mm 42 W/m2
19:59 82.5 °F /  28.1 °C 62 °F /  16.7 °C 29.87in /  1011.4hPa South 3.4mph /  5.5km/h 7mph /  11.3km/h 49.9% 0.00in /  0mm 42 W/m2
20:04 82.4 °F /  28 °C 61.9 °F /  16.6 °C 29.87in /  1011.4hPa SSE 3.4mph /  5.5km/h 7mph /  11.3km/h 50% 0.00in /  0mm 39 W/m2
20:09 82.3 °F /  27.9 °C 61.8 °F /  16.6 °C 29.87in /  1011.4hPa SSE 2.4mph /  3.9km/h 6mph /  9.7km/h 50% 0.00in /  0mm 33 W/m2
20:14 82.1 °F /  27.8 °C 61.6 °F /  16.4 °C 29.86in /  1011.1hPa SSE 3.5mph /  5.6km/h 9mph /  14.5km/h 50% 0.00in /  0mm 33 W/m2
20:19 81.9 °F /  27.7 °C 61.4 °F /  16.3 °C 29.86in /  1011.1hPa SSE 4.9mph /  7.9km/h 9mph /  14.5km/h 50% 0.00in /  0mm 33 W/m2
20:24 81.9 °F /  27.7 °C 61.8 °F /  16.6 °C 29.86in /  1011.1hPa SSE 1.2mph /  1.9km/h 9mph /  14.5km/h 50.9% 0.00in /  0mm 33 W/m2
20:29 81.6 °F /  27.6 °C 61.9 °F /  16.6 °C 29.86in /  1011.1hPa SSE 0.9mph /  1.4km/h 5mph /  8km/h 51.2% 0.00in /  0mm 32 W/m2
20:34 81.4 °F /  27.4 °C 62.1 °F /  16.7 °C 29.86in /  1011.1hPa SSE 1.8mph /  2.9km/h 6mph /  9.7km/h 52% 0.00in /  0mm 28 W/m2
20:39 81.2 °F /  27.3 °C 62.3 °F /  16.8 °C 29.86in /  1011.1hPa SSE 0.6mph /  1km/h 3mph /  4.8km/h 52.7% 0.00in /  0mm 23 W/m2
20:44 81.1 °F /  27.3 °C 62.8 °F /  17.1 °C 29.86in /  1011.1hPa SSE 0.1mph /  0.2km/h 2mph /  3.2km/h 53.8% 0.00in /  0mm 19 W/m2
20:49 80.8 °F /  27.1 °C 62.6 °F /  17 °C 29.86in /  1011.1hPa SSE 0.4mph /  0.6km/h 3mph /  4.8km/h 54% 0.00in /  0mm 16 W/m2
20:54 80.4 °F /  26.9 °C 62.2 °F /  16.8 °C 29.86in /  1011.1hPa SSE 0.3mph /  0.5km/h 3mph /  4.8km/h 54% 0.00in /  0mm 12 W/m2
20:59 80.2 °F /  26.8 °C 62.4 °F /  16.9 °C 29.86in /  1011.1hPa SSE 0.1mph /  0.2km/h 2mph /  3.2km/h 54.6% 0.00in /  0mm 9 W/m2
21:04 80 °F /  26.7 °C 62.3 °F /  16.8 °C 29.86in /  1011.1hPa Calm   1mph /  1.6km/h 55% 0.00in /  0mm 7 W/m2
21:09 79.7 °F /  26.5 °C 62.1 °F /  16.7 °C 29.86in /  1011.1hPa Calm     55% 0.00in /  0mm 5 W/m2
21:14 79.4 °F /  26.3 °C 62.3 °F /  16.8 °C 29.86in /  1011.1hPa SSE 0.2mph /  0.3km/h 1mph /  1.6km/h 56% 0.00in /  0mm 0 W/m2
21:19 79.2 °F /  26.2 °C 62.2 °F /  16.8 °C 29.86in /  1011.1hPa SSE 0.5mph /  0.8km/h 2mph /  3.2km/h 56.2% 0.00in /  0mm 0 W/m2
21:24 78.8 °F /  26 °C 61.8 °F /  16.6 °C 29.86in /  1011.1hPa SSE 0.2mph /  0.3km/h 2mph /  3.2km/h 56.1% 0.00in /  0mm 0 W/m2
21:29 78.7 °F /  25.9 °C 62.2 °F /  16.8 °C 29.86in /  1011.1hPa SSE 0.9mph /  1.4km/h 3mph /  4.8km/h 57% 0.00in /  0mm 0 W/m2
21:34 78.5 °F /  25.8 °C 62 °F /  16.7 °C 29.86in /  1011.1hPa SSE 0.5mph /  0.8km/h 3mph /  4.8km/h 57% 0.00in /  0mm 0 W/m2
21:39 78.4 °F /  25.8 °C 61.9 °F /  16.6 °C 29.86in /  1011.1hPa SE 0.9mph /  1.4km/h 3mph /  4.8km/h 57% 0.00in /  0mm 0 W/m2
21:44 78.3 °F /  25.7 °C 61.8 °F /  16.6 °C 29.86in /  1011.1hPa SE 0.9mph /  1.4km/h 4mph /  6.4km/h 57% 0.00in /  0mm 0 W/m2
21:49 78.3 °F /  25.7 °C 62.2 °F /  16.8 °C 29.85in /  1010.7hPa SE 1mph /  1.6km/h 3mph /  4.8km/h 58% 0.00in /  0mm 0 W/m2
21:54 78.2 °F /  25.7 °C 62.1 °F /  16.7 °C 29.85in /  1010.7hPa SE 0.7mph /  1.1km/h 3mph /  4.8km/h 58% 0.00in /  0mm 0 W/m2
21:59 78 °F /  25.6 °C 62 °F /  16.7 °C 29.85in /  1010.7hPa SE 1.6mph /  2.6km/h 5mph /  8km/h 58% 0.00in /  0mm 0 W/m2
22:04 77.9 °F /  25.5 °C 61.9 °F /  16.6 °C 29.85in /  1010.7hPa SE 1.6mph /  2.6km/h 5mph /  8km/h 58% 0.00in /  0mm 0 W/m2
22:09 77.9 °F /  25.5 °C 61.9 °F /  16.6 °C 29.85in /  1010.7hPa SE 1.7mph /  2.7km/h 5mph /  8km/h 58% 0.00in /  0mm 0 W/m2
22:14 77.9 °F /  25.5 °C 61.9 °F /  16.6 °C 29.85in /  1010.7hPa ESE 2.3mph /  3.7km/h 6mph /  9.7km/h 58% 0.00in /  0mm 0 W/m2
22:19 77.9 °F /  25.5 °C 61.9 °F /  16.6 °C 29.85in /  1010.7hPa ESE 0.7mph /  1.1km/h 6mph /  9.7km/h 58% 0.00in /  0mm 0 W/m2
22:24 77.9 °F /  25.5 °C 61.9 °F /  16.6 °C 29.85in /  1010.7hPa ESE 0.5mph /  0.8km/h 4mph /  6.4km/h 58% 0.00in /  0mm 0 W/m2
22:29 77.9 °F /  25.5 °C 61.9 °F /  16.6 °C 29.85in /  1010.7hPa ESE 1.4mph /  2.3km/h 5mph /  8km/h 58% 0.00in /  0mm 0 W/m2
22:34 77.9 °F /  25.5 °C 61.9 °F /  16.6 °C 29.85in /  1010.7hPa ESE 0.6mph /  1km/h 5mph /  8km/h 58% 0.00in /  0mm 0 W/m2
22:39 77.9 °F /  25.5 °C 61.9 °F /  16.6 °C 29.85in /  1010.7hPa ESE 0.9mph /  1.4km/h 3mph /  4.8km/h 58% 0.00in /  0mm 0 W/m2
22:44 77.9 °F /  25.5 °C 62 °F /  16.7 °C 29.85in /  1010.7hPa ESE 0.4mph /  0.6km/h 3mph /  4.8km/h 58.2% 0.00in /  0mm 0 W/m2
22:49 77.8 °F /  25.4 °C 62.4 °F /  16.9 °C 29.84in /  1010.4hPa ESE 0.6mph /  1km/h 2mph /  3.2km/h 59.2% 0.00in /  0mm 0 W/m2
22:54 77.7 °F /  25.4 °C 62.6 °F /  17 °C 29.84in /  1010.4hPa ESE 0.8mph /  1.3km/h 3mph /  4.8km/h 59.7% 0.00in /  0mm 0 W/m2
22:59 77.7 °F /  25.4 °C 62.3 °F /  16.8 °C 29.84in /  1010.4hPa ESE 1.3mph /  2.1km/h 4mph /  6.4km/h 59.2% 0.00in /  0mm 0 W/m2
23:04 77.7 °F /  25.4 °C 62.2 °F /  16.8 °C 29.84in /  1010.4hPa ESE 0.6mph /  1km/h 2mph /  3.2km/h 59% 0.00in /  0mm 0 W/m2
23:09 77.7 °F /  25.4 °C 62.3 °F /  16.8 °C 29.84in /  1010.4hPa ESE 0.2mph /  0.3km/h 2mph /  3.2km/h 59.2% 0.00in /  0mm 0 W/m2
23:14 77.6 °F /  25.3 °C 62.2 °F /  16.8 °C 29.84in /  1010.4hPa ESE 0.1mph /  0.2km/h 1mph /  1.6km/h 59.2% 0.00in /  0mm 0 W/m2
23:19 77.5 °F /  25.3 °C 62.4 °F /  16.9 °C 29.84in /  1010.4hPa ESE 0.8mph /  1.3km/h 4mph /  6.4km/h 59.8% 0.00in /  0mm 0 W/m2
23:24 76.8 °F /  24.9 °C 62.4 °F /  16.9 °C 29.84in /  1010.4hPa ESE 5.6mph /  9km/h 8mph /  12.9km/h 61.1% 0.00in /  0mm 0 W/m2
23:29 76.1 °F /  24.5 °C 62.3 °F /  16.8 °C 29.84in /  1010.4hPa WNW 4.2mph /  6.8km/h 8mph /  12.9km/h 62.5% 0.00in /  0mm 0 W/m2
23:34 75.3 °F /  24.1 °C 62.3 °F /  16.8 °C 29.84in /  1010.4hPa WNW 3.9mph /  6.3km/h 9mph /  14.5km/h 63.8% 0.00in /  0mm 0 W/m2
23:39 75 °F /  23.9 °C 62.1 °F /  16.7 °C 29.83in /  1010hPa NW 0.7mph /  1.1km/h 7mph /  11.3km/h 64% 0.00in /  0mm 0 W/m2
23:44 74.9 °F /  23.8 °C 62.3 °F /  16.8 °C 29.83in /  1010hPa NW 0.2mph /  0.3km/h 2mph /  3.2km/h 64.9% 0.00in /  0mm 0 W/m2
23:49 74.8 °F /  23.8 °C 62.2 °F /  16.8 °C 29.83in /  1010hPa NW 1mph /  1.6km/h 4mph /  6.4km/h 65% 0.00in /  0mm 0 W/m2
23:54 74.7 °F /  23.7 °C 62.1 °F /  16.7 °C 29.82in /  1009.7hPa NW 2.2mph /  3.5km/h 4mph /  6.4km/h 65% 0.00in /  0mm 0 W/m2
23:59 74.4 °F /  23.6 °C 61.9 °F /  16.6 °C 29.83in /  1010hPa WNW 4.2mph /  6.8km/h 7mph /  11.3km/h 65.2% 0.00in /  0mm 0 W/m2
Bath Spa Weather
Compliments of Weather Underground - 2 mb